Time;durP1;ratioP1;P1;durP2;ratioP2;P2;SDS_P1;SDS_P2;PMS_P1;PMS_P2;Temp;Humidity;BMP_temperature;BMP_pressure;BME280_temperature;BME280_humidity;BME280_pressure;Samples;Min_cycle;Max_cycle;Signal;HPM_P1;HPM_P2
2021/07/26 00:00:49;;;;;;;5.70;5.18;;;;;;;;;;5076831;28;20082;-76
2021/07/26 00:03:15;;;;;;;5.35;4.85;;;;;;;;;;5076009;28;20063;-77
2021/07/26 00:05:41;;;;;;;6.43;4.80;;;;;;;;;;5075437;28;20021;-77
2021/07/26 00:08:07;;;;;;;7.55;5.28;;;;;;;;;;5075570;28;20150;-77
2021/07/26 00:10:37;;;;;;;5.07;4.57;;;;;;;;;;5075509;28;20031;-77
2021/07/26 00:13:03;;;;;;;4.70;4.28;;;;;;;;;;5075719;28;20043;-76
2021/07/26 00:15:29;;;;;;;6.53;5.40;;;;;;;;;;5075699;28;20017;-76
2021/07/26 00:17:55;;;;;;;6.15;5.65;;;;;;;;;;5075449;28;20025;-76
2021/07/26 00:20:21;;;;;;;9.48;6.25;;;;;;;;;;5073955;28;20035;-76
2021/07/26 00:22:48;;;;;;;6.45;5.60;;;;;;;;;;5074758;28;20056;-77
2021/07/26 00:25:14;;;;;;;6.13;5.53;;;;;;;;;;5076021;28;20350;-77
2021/07/26 00:27:40;;;;;;;6.55;5.38;;;;;;;;;;5076162;28;20046;-77
2021/07/26 00:30:07;;;;;;;5.50;5.00;;;;;;;;;;5075639;28;20032;-76
2021/07/26 00:32:34;;;;;;;5.60;5.00;;;;;;;;;;5075486;28;20039;-77
2021/07/26 00:35:01;;;;;;;7.55;5.45;;;;;;;;;;5076698;28;20028;-77
2021/07/26 00:37:28;;;;;;;5.15;4.72;;;;;;;;;;5075578;28;20040;-77
2021/07/26 00:39:54;;;;;;;4.38;3.97;;;;;;;;;;5075625;28;20028;-77
2021/07/26 00:42:21;;;;;;;5.68;4.88;;;;;;;;;;5075861;28;20024;-77
2021/07/26 00:44:47;;;;;;;5.75;4.82;;;;;;;;;;5075972;28;20034;-76
2021/07/26 00:47:13;;;;;;;5.25;4.75;;;;;;;;;;5073830;28;20078;-77
2021/07/26 00:49:39;;;;;;;5.50;5.00;;;;;;;;;;5074460;28;20025;-78
2021/07/26 00:52:06;;;;;;;4.80;4.40;;;;;;;;;;5075604;28;20032;-77
2021/07/26 00:54:34;;;;;;;4.97;4.50;;;;;;;;;;5075954;28;20032;-76
2021/07/26 00:57:01;;;;;;;5.10;4.60;;;;;;;;;;5075665;28;20652;-76
2021/07/26 00:59:28;;;;;;;3.95;3.65;;;;;;;;;;5075320;28;20041;-76
2021/07/26 01:01:56;;;;;;;3.92;3.63;;;;;;;;;;5075295;28;20075;-76
2021/07/26 01:04:22;;;;;;;5.20;4.70;;;;;;;;;;5075119;28;20025;-76
2021/07/26 01:06:48;;;;;;;4.80;4.40;;;;;;;;;;5074498;28;20024;-76
2021/07/26 01:09:15;;;;;;;5.43;4.80;;;;;;;;;;5074311;28;20180;-76
2021/07/26 01:11:41;;;;;;;4.90;4.50;;;;;;;;;;5073271;28;20089;-76
2021/07/26 01:14:08;;;;;;;6.22;4.90;;;;;;;;;;5075138;28;20151;-77
2021/07/26 01:16:34;;;;;;;5.35;4.85;;;;;;;;;;5075767;28;20029;-76
2021/07/26 01:19:01;;;;;;;4.35;3.80;;;;;;;;;;5074423;28;20058;-76
2021/07/26 01:21:27;;;;;;;6.75;4.85;;;;;;;;;;5075680;28;20035;-77
2021/07/26 01:23:53;;;;;;;5.15;4.65;;;;;;;;;;5075868;28;20027;-77
2021/07/26 01:26:20;;;;;;;5.85;5.25;;;;;;;;;;5075534;28;20157;-78
2021/07/26 01:28:50;;;;;;;5.47;4.93;;;;;;;;;;5074456;28;20040;-76
2021/07/26 01:31:17;;;;;;;5.30;4.80;;;;;;;;;;5075035;28;20059;-77
2021/07/26 01:33:44;;;;;;;5.90;4.72;;;;;;;;;;5074575;28;20021;-77
2021/07/26 01:36:10;;;;;;;5.55;4.88;;;;;;;;;;5075089;28;20368;-78
2021/07/26 01:38:36;;;;;;;5.70;5.13;;;;;;;;;;5074612;28;20043;-76
2021/07/26 01:41:04;;;;;;;5.55;5.00;;;;;;;;;;5074401;28;20016;-77
2021/07/26 01:43:37;;;;;;;4.97;4.45;;;;;;;;;;5074638;28;20016;-77
2021/07/26 01:46:03;;;;;;;6.38;4.60;;;;;;;;;;5074751;28;20020;-78
2021/07/26 01:48:53;;;;;;;6.10;5.10;;;;;;;;;;5074700;28;20027;-77
2021/07/26 01:51:49;;;;;;;5.50;5.00;;;;;;;;;;5070023;28;20060;-78
2021/07/26 01:54:15;;;;;;;5.90;4.78;;;;;;;;;;5068594;28;20044;-77
2021/07/26 01:56:41;;;;;;;4.85;4.22;;;;;;;;;;5076465;28;20088;-76
2021/07/26 01:59:08;;;;;;;5.22;4.72;;;;;;;;;;5074429;28;20044;-77
2021/07/26 02:01:34;;;;;;;7.13;4.90;;;;;;;;;;5074798;28;20127;-77
2021/07/26 02:04:00;;;;;;;6.13;5.47;;;;;;;;;;5075080;28;20028;-76
2021/07/26 02:06:27;;;;;;;5.05;4.55;;;;;;;;;;5075641;28;20025;-76
2021/07/26 02:08:53;;;;;;;4.85;4.38;;;;;;;;;;5075206;28;20025;-77
2021/07/26 02:11:21;;;;;;;4.80;4.28;;;;;;;;;;5078365;28;20502;-77
2021/07/26 02:13:48;;;;;;;5.10;4.70;;;;;;;;;;5076332;28;20052;-77
2021/07/26 02:16:15;;;;;;;4.90;4.25;;;;;;;;;;5076598;28;20066;-77
2021/07/26 02:18:41;;;;;;;4.97;4.40;;;;;;;;;;5077231;28;20036;-77
2021/07/26 02:21:07;;;;;;;4.03;3.72;;;;;;;;;;5077260;28;20044;-77
2021/07/26 02:23:33;;;;;;;4.47;4.07;;;;;;;;;;5076981;28;20028;-76
2021/07/26 02:25:59;;;;;;;4.40;4.00;;;;;;;;;;5075208;28;20112;-77
2021/07/26 02:28:25;;;;;;;4.30;3.85;;;;;;;;;;5076905;28;20447;-77
2021/07/26 02:30:51;;;;;;;4.25;3.92;;;;;;;;;;5075001;28;20097;-77
2021/07/26 02:33:17;;;;;;;4.38;3.95;;;;;;;;;;5076287;28;20543;-77
2021/07/26 02:35:43;;;;;;;4.35;3.95;;;;;;;;;;5092253;28;20040;-77
2021/07/26 02:38:09;;;;;;;4.20;3.90;;;;;;;;;;5079798;28;20123;-77
2021/07/26 02:40:35;;;;;;;3.88;3.58;;;;;;;;;;5077535;28;20039;-76
2021/07/26 02:43:01;;;;;;;4.45;3.35;;;;;;;;;;5077550;28;20052;-77
2021/07/26 02:45:28;;;;;;;4.07;3.67;;;;;;;;;;5077518;28;20017;-77
2021/07/26 02:47:54;;;;;;;3.70;3.40;;;;;;;;;;5079725;28;20036;-77
2021/07/26 02:50:21;;;;;;;3.83;3.53;;;;;;;;;;5078040;28;20150;-77
2021/07/26 02:52:47;;;;;;;3.83;3.50;;;;;;;;;;5058188;28;20033;-78
2021/07/26 02:55:13;;;;;;;3.92;3.13;;;;;;;;;;5058612;28;20032;-77
2021/07/26 02:57:39;;;;;;;6.43;3.50;;;;;;;;;;5057889;28;20555;-77
2021/07/26 03:00:06;;;;;;;3.63;3.33;;;;;;;;;;5063015;28;20052;-77
2021/07/26 03:02:36;;;;;;;3.67;3.38;;;;;;;;;;5087708;28;20033;-77
2021/07/26 03:05:03;;;;;;;3.40;3.10;;;;;;;;;;5083582;28;20086;-77
2021/07/26 03:07:29;;;;;;;3.50;3.20;;;;;;;;;;5078696;28;20078;-77
2021/07/26 03:09:55;;;;;;;5.13;3.97;;;;;;;;;;5079022;28;20035;-77
2021/07/26 03:12:21;;;;;;;3.85;3.40;;;;;;;;;;5078599;28;20032;-77
2021/07/26 03:14:47;;;;;;;3.60;3.30;;;;;;;;;;5078938;28;20024;-76
2021/07/26 03:17:13;;;;;;;3.53;3.22;;;;;;;;;;5079033;28;20035;-77
2021/07/26 03:19:39;;;;;;;4.13;3.72;;;;;;;;;;5076634;28;20029;-76
2021/07/26 03:22:31;;;;;;;3.22;2.92;;;;;;;;;;5075061;28;20020;-76
2021/07/26 03:24:57;;;;;;;;;;;;;;;;;;5075428;28;20051;-76
2021/07/26 03:27:24;;;;;;;5.30;3.00;;;;;;;;;;5072908;28;19904;-76
2021/07/26 03:29:50;;;;;;;3.83;3.45;;;;;;;;;;5069921;28;20115;-78
2021/07/26 03:32:16;;;;;;;3.88;3.53;;;;;;;;;;5076408;28;20033;-77
2021/07/26 03:34:42;;;;;;;5.82;3.80;;;;;;;;;;5070353;28;20025;-79
2021/07/26 03:37:09;;;;;;;4.20;3.63;;;;;;;;;;5074339;28;20078;-78
2021/07/26 03:39:35;;;;;;;3.70;3.40;;;;;;;;;;5076831;28;20020;-77
2021/07/26 03:42:01;;;;;;;4.63;3.33;;;;;;;;;;5076862;28;20385;-76
2021/07/26 03:44:28;;;;;;;4.03;3.63;;;;;;;;;;5075989;28;20354;-76
2021/07/26 03:46:54;;;;;;;3.63;3.33;;;;;;;;;;5076834;28;20048;-76
2021/07/26 03:49:20;;;;;;;4.95;3.10;;;;;;;;;;5076716;28;20032;-76
2021/07/26 03:51:46;;;;;;;3.03;2.72;;;;;;;;;;5076753;28;20024;-76
2021/07/26 03:54:12;;;;;;;3.35;3.05;;;;;;;;;;5075161;28;20037;-77
2021/07/26 03:56:38;;;;;;;4.43;3.40;;;;;;;;;;5076021;28;20035;-76
2021/07/26 03:59:04;;;;;;;3.78;2.88;;;;;;;;;;5075480;28;20460;-76
2021/07/26 04:01:30;;;;;;;4.85;3.05;;;;;;;;;;5075794;28;20031;-76
2021/07/26 04:03:56;;;;;;;3.20;2.90;;;;;;;;;;5074049;28;20102;-76
2021/07/26 04:06:23;;;;;;;3.83;3.00;;;;;;;;;;5073718;28;20048;-77
2021/07/26 04:08:51;;;;;;;3.88;3.47;;;;;;;;;;5073684;28;20077;-78
2021/07/26 04:13:54;;;;;;;3.60;3.30;;;;;;;;;;5074956;28;20039;-76
2021/07/26 04:16:21;;;;;;;3.30;3.00;;;;;;;;;;5073696;28;20044;-77
2021/07/26 04:18:50;;;;;;;3.60;3.30;;;;;;;;;;5074019;28;20075;-77
2021/07/26 04:21:16;;;;;;;3.60;3.22;;;;;;;;;;5073473;28;20021;-77
2021/07/26 04:23:43;;;;;;;5.65;3.50;;;;;;;;;;5074722;28;20016;-76
2021/07/26 04:26:09;;;;;;;4.05;3.63;;;;;;;;;;5072976;28;20020;-76
2021/07/26 04:28:35;;;;;;;3.70;3.40;;;;;;;;;;5104777;22;20045;-79
2021/07/26 04:31:01;;;;;;;4.97;3.28;;;;;;;;;;5064392;28;20162;-78
2021/07/26 04:33:27;;;;;;;3.40;3.10;;;;;;;;;;5059048;28;20527;-80
2021/07/26 04:35:53;;;;;;;3.38;3.10;;;;;;;;;;5058557;28;20040;-80
2021/07/26 04:38:19;;;;;;;4.47;4.07;;;;;;;;;;5060772;28;20017;-79
2021/07/26 04:40:45;;;;;;;4.43;3.28;;;;;;;;;;5064445;28;20017;-79
2021/07/26 04:43:11;;;;;;;3.65;3.08;;;;;;;;;;5061015;28;20032;-81
2021/07/26 04:45:37;;;;;;;3.63;3.33;;;;;;;;;;5048392;28;20048;-82
2021/07/26 04:48:04;;;;;;;3.33;3.03;;;;;;;;;;5043672;28;20430;-81
2021/07/26 04:50:30;;;;;;;4.03;3.63;;;;;;;;;;5051631;28;20408;-79
2021/07/26 04:52:56;;;;;;;3.15;2.85;;;;;;;;;;5047672;28;20504;-80
2021/07/26 04:55:22;;;;;;;3.40;3.10;;;;;;;;;;5057151;28;20034;-79
2021/07/26 04:57:48;;;;;;;3.88;2.92;;;;;;;;;;5059593;28;20025;-78
2021/07/26 05:00:14;;;;;;;3.95;3.20;;;;;;;;;;5053974;28;20056;-79
2021/07/26 05:02:40;;;;;;;2.80;2.60;;;;;;;;;;5057929;28;20032;-79
2021/07/26 05:05:06;;;;;;;3.55;3.25;;;;;;;;;;5047487;28;20040;-80
2021/07/26 05:07:33;;;;;;;2.97;2.78;;;;;;;;;;5034598;28;20033;-80
2021/07/26 05:09:59;;;;;;;3.45;3.15;;;;;;;;;;5038965;28;20053;-80
2021/07/26 05:12:25;;;;;;;3.55;3.13;;;;;;;;;;5046208;28;20022;-80
2021/07/26 05:14:52;;;;;;;3.30;3.00;;;;;;;;;;5038260;28;20398;-81
2021/07/26 05:17:26;;;;;;;4.20;3.53;;;;;;;;;;5051053;28;20029;-78
2021/07/26 05:19:53;;;;;;;3.33;3.03;;;;;;;;;;5047862;28;20068;-80
2021/07/26 05:22:19;;;;;;;3.47;3.17;;;;;;;;;;5039317;28;20528;-79
2021/07/26 05:24:46;;;;;;;3.55;3.20;;;;;;;;;;5040390;28;20025;-80
2021/07/26 05:27:12;;;;;;;3.80;3.28;;;;;;;;;;5047323;28;20021;-80
2021/07/26 05:29:38;;;;;;;3.83;3.10;;;;;;;;;;5048349;28;20058;-80
2021/07/26 05:32:05;;;;;;;3.72;3.13;;;;;;;;;;5037071;28;20029;-80
2021/07/26 05:34:31;;;;;;;4.10;3.10;;;;;;;;;;5039952;28;20040;-79
2021/07/26 05:36:57;;;;;;;4.30;3.20;;;;;;;;;;5046924;28;20116;-80
2021/07/26 05:39:24;;;;;;;4.07;3.70;;;;;;;;;;5056193;28;20025;-81
2021/07/26 05:41:51;;;;;;;3.97;3.63;;;;;;;;;;5058491;28;20052;-81
2021/07/26 05:44:17;;;;;;;4.35;3.95;;;;;;;;;;5058479;28;20079;-79
2021/07/26 05:46:43;;;;;;;4.00;3.67;;;;;;;;;;5042614;28;20040;-79
2021/07/26 05:49:09;;;;;;;3.83;3.53;;;;;;;;;;5052174;28;20031;-79
2021/07/26 05:51:35;;;;;;;3.50;3.20;;;;;;;;;;5051838;28;20021;-80
2021/07/26 05:54:01;;;;;;;3.42;3.13;;;;;;;;;;5056888;28;20079;-80
2021/07/26 05:56:34;;;;;;;3.15;2.88;;;;;;;;;;5057946;28;20051;-81
2021/07/26 05:59:02;;;;;;;4.43;3.72;;;;;;;;;;5037538;28;20044;-80
2021/07/26 06:04:14;;;;;;;3.78;3.22;;;;;;;;;;5038777;28;20087;-78
2021/07/26 06:06:42;;;;;;;4.32;3.28;;;;;;;;;;5038130;28;20049;-79
2021/07/26 06:09:08;;;;;;;3.60;3.30;;;;;;;;;;5038261;28;20025;-79
2021/07/26 06:11:34;;;;;;;3.25;2.97;;;;;;;;;;5037892;28;20075;-78
2021/07/26 06:14:00;;;;;;;3.40;3.10;;;;;;;;;;5037562;28;20053;-79
2021/07/26 06:16:26;;;;;;;3.35;3.05;;;;;;;;;;5044868;28;20029;-79
2021/07/26 06:18:52;;;;;;;3.17;2.92;;;;;;;;;;5047434;28;20048;-79
2021/07/26 06:21:18;;;;;;;5.38;3.50;;;;;;;;;;5051908;28;20024;-79
2021/07/26 06:23:44;;;;;;;3.83;3.42;;;;;;;;;;5062941;28;20103;-80
2021/07/26 06:26:10;;;;;;;3.80;3.50;;;;;;;;;;5061557;28;20025;-80
2021/07/26 06:28:36;;;;;;;3.95;3.47;;;;;;;;;;5053034;28;20029;-81
2021/07/26 06:31:03;;;;;;;3.45;3.15;;;;;;;;;;5041308;28;20033;-81
2021/07/26 06:33:30;;;;;;;3.25;2.88;;;;;;;;;;5039918;28;20075;-81
2021/07/26 06:35:56;;;;;;;3.35;3.05;;;;;;;;;;5039785;28;20025;-81
2021/07/26 06:38:22;;;;;;;3.25;2.95;;;;;;;;;;5046879;28;20025;-81
2021/07/26 06:40:48;;;;;;;3.10;2.80;;;;;;;;;;5061640;28;20384;-81
2021/07/26 06:43:15;;;;;;;3.20;2.65;;;;;;;;;;5061667;28;20023;-81
2021/07/26 06:45:41;;;;;;;2.88;2.63;;;;;;;;;;5054160;28;20416;-79
2021/07/26 06:48:07;;;;;;;3.50;2.90;;;;;;;;;;5048119;28;20025;-79
2021/07/26 06:50:33;;;;;;;3.25;2.83;;;;;;;;;;5050232;28;20068;-80
2021/07/26 06:52:59;;;;;;;4.07;2.80;;;;;;;;;;5041692;28;20032;-79
2021/07/26 06:55:25;;;;;;;4.38;3.40;;;;;;;;;;5043408;28;20037;-79
2021/07/26 06:57:51;;;;;;;5.95;3.53;;;;;;;;;;5043625;28;20025;-79
2021/07/26 07:00:17;;;;;;;3.83;3.42;;;;;;;;;;5044536;28;20032;-81
2021/07/26 07:02:43;;;;;;;3.50;2.67;;;;;;;;;;5041553;28;20026;-80
2021/07/26 07:05:10;;;;;;;3.80;3.50;;;;;;;;;;5042649;28;20132;-81
2021/07/26 07:07:36;;;;;;;3.17;2.97;;;;;;;;;;5042386;28;20021;-81
2021/07/26 07:10:02;;;;;;;3.55;2.97;;;;;;;;;;5044029;28;20030;-81
2021/07/26 07:12:28;;;;;;;3.90;3.05;;;;;;;;;;5042360;28;20037;-80
2021/07/26 07:14:54;;;;;;;3.40;3.00;;;;;;;;;;5043216;28;20199;-80
2021/07/26 07:17:20;;;;;;;3.25;2.95;;;;;;;;;;5049638;28;20025;-80
2021/07/26 07:19:48;;;;;;;3.72;3.42;;;;;;;;;;5060725;28;20025;-82
2021/07/26 07:22:18;;;;;;;3.33;3.03;;;;;;;;;;5044172;28;20092;-81
2021/07/26 07:24:45;;;;;;;3.58;3.28;;;;;;;;;;5043647;28;20017;-81
2021/07/26 07:27:11;;;;;;;6.32;3.10;;;;;;;;;;5043564;28;20021;-81
2021/07/26 07:29:37;;;;;;;4.93;3.05;;;;;;;;;;5046918;28;20078;-82
2021/07/26 07:32:04;;;;;;;4.15;3.10;;;;;;;;;;5063618;28;20029;-81
2021/07/26 07:34:30;;;;;;;3.75;3.35;;;;;;;;;;5065305;28;20037;-80
2021/07/26 07:36:58;;;;;;;3.75;3.40;;;;;;;;;;5065145;28;20052;-80
2021/07/26 07:39:25;;;;;;;3.60;3.30;;;;;;;;;;5066488;28;20450;-82
2021/07/26 07:41:52;;;;;;;4.38;3.00;;;;;;;;;;5058710;28;20068;-80
2021/07/26 07:44:18;;;;;;;4.30;3.13;;;;;;;;;;5061334;28;20037;-80
2021/07/26 07:46:44;;;;;;;4.82;2.83;;;;;;;;;;5056688;28;20093;-82
2021/07/26 07:49:11;;;;;;;3.85;3.17;;;;;;;;;;5056921;28;20052;-80
2021/07/26 07:51:37;;;;;;;3.45;3.05;;;;;;;;;;5045693;28;20105;-77
2021/07/26 07:54:03;;;;;;;4.80;3.55;;;;;;;;;;5046050;28;20041;-77
2021/07/26 07:56:30;;;;;;;3.50;3.20;;;;;;;;;;5046302;28;20036;-81
2021/07/26 07:59:00;;;;;;;4.68;3.30;;;;;;;;;;5051148;28;20025;-82
2021/07/26 08:01:29;;;;;;;5.10;3.40;;;;;;;;;;5056847;28;20334;-81
2021/07/26 08:03:56;;;;;;;4.05;3.47;;;;;;;;;;5067361;28;20013;-81
2021/07/26 08:06:22;;;;;;;6.05;3.40;;;;;;;;;;5063878;28;20025;-82
2021/07/26 08:08:48;;;;;;;5.72;4.20;;;;;;;;;;5062572;28;20056;-80
2021/07/26 08:11:14;;;;;;;4.43;3.50;;;;;;;;;;5063356;28;20128;-82
2021/07/26 08:13:40;;;;;;;5.10;3.05;;;;;;;;;;5062353;28;20021;-81
2021/07/26 08:16:06;;;;;;;4.80;3.40;;;;;;;;;;5049345;28;20017;-81
2021/07/26 08:18:32;;;;;;;4.35;3.05;;;;;;;;;;5055388;28;20095;-81
2021/07/26 08:20:59;;;;;;;3.95;3.20;;;;;;;;;;5045071;28;20025;-81
2021/07/26 08:23:25;;;;;;;3.85;3.53;;;;;;;;;;5041877;28;20040;-80
2021/07/26 08:25:51;;;;;;;3.40;3.10;;;;;;;;;;5043886;28;20612;-80
2021/07/26 08:28:17;;;;;;;3.63;3.20;;;;;;;;;;5042244;28;20034;-80
2021/07/26 08:30:44;;;;;;;4.85;3.40;;;;;;;;;;5040450;28;20029;-78
2021/07/26 08:33:10;;;;;;;4.88;3.78;;;;;;;;;;5058816;28;20033;-80
2021/07/26 08:35:37;;;;;;;4.13;3.33;;;;;;;;;;5061489;28;20097;-78
2021/07/26 08:38:04;;;;;;;4.03;3.47;;;;;;;;;;5054178;28;20005;-81
2021/07/26 08:40:30;;;;;;;5.32;3.00;;;;;;;;;;5040278;28;20103;-80
2021/07/26 08:43:02;;;;;;;4.70;3.15;;;;;;;;;;5041548;28;20093;-81
2021/07/26 08:45:28;;;;;;;3.85;3.28;;;;;;;;;;5043524;28;20037;-82
2021/07/26 08:47:55;;;;;;;6.00;3.75;;;;;;;;;;5049733;28;20319;-79
2021/07/26 08:50:21;;;;;;;3.95;3.47;;;;;;;;;;5044980;28;20021;-81
2021/07/26 08:52:49;;;;;;;3.55;3.08;;;;;;;;;;5061493;28;20021;-81
2021/07/26 08:55:16;;;;;;;4.07;3.28;;;;;;;;;;5061986;28;20083;-81
2021/07/26 08:57:43;;;;;;;4.72;3.78;;;;;;;;;;5061922;28;20027;-80
2021/07/26 09:00:10;;;;;;;3.53;3.20;;;;;;;;;;5059667;28;20040;-80
2021/07/26 09:02:36;;;;;;;4.03;3.08;;;;;;;;;;5059302;28;20539;-80
2021/07/26 09:05:03;;;;;;;3.70;3.20;;;;;;;;;;5041951;28;20036;-79
2021/07/26 09:07:29;;;;;;;4.35;3.20;;;;;;;;;;5037496;28;20025;-79
2021/07/26 09:09:55;;;;;;;3.22;2.90;;;;;;;;;;5044197;28;20029;-80
2021/07/26 09:12:33;;;;;;;3.28;2.97;;;;;;;;;;5053184;28;20052;-80
2021/07/26 09:15:00;;;;;;;3.08;2.88;;;;;;;;;;5060033;28;20346;-80
2021/07/26 09:17:46;;;;;;;3.65;3.30;;;;;;;;;;5061043;28;20029;-81
2021/07/26 09:20:13;;;;;;;3.70;2.80;;;;;;;;;;5050298;28;20041;-80
2021/07/26 09:22:41;;;;;;;3.83;3.50;;;;;;;;;;5060035;28;20027;-79
2021/07/26 09:25:19;;;;;;;4.00;3.15;;;;;;;;;;5061438;28;20047;-79
2021/07/26 09:28:05;;;;;;;4.45;3.30;;;;;;;;;;5065259;28;20048;-81
2021/07/26 09:30:46;;;;;;;4.47;3.70;;;;;;;;;;5061643;28;20042;-78
2021/07/26 09:33:15;;;;;;;4.05;3.60;;;;;;;;;;5060189;28;20071;-81
2021/07/26 09:35:41;;;;;;;3.72;3.40;;;;;;;;;;5043259;28;20033;-79
2021/07/26 09:38:07;;;;;;;3.30;3.00;;;;;;;;;;5040002;28;20029;-80
2021/07/26 09:40:34;;;;;;;3.78;3.45;;;;;;;;;;5042369;28;20029;-80
2021/07/26 09:43:18;;;;;;;3.92;3.15;;;;;;;;;;5043649;28;20064;-81
2021/07/26 09:45:44;;;;;;;3.75;3.30;;;;;;;;;;5045337;28;20041;-82
2021/07/26 09:48:14;;;;;;;5.55;3.42;;;;;;;;;;5051707;28;20029;-80
2021/07/26 09:50:40;;;;;;;3.17;2.97;;;;;;;;;;5061207;28;20055;-81
2021/07/26 09:53:26;;;;;;;4.20;3.80;;;;;;;;;;5062210;28;20032;-81
2021/07/26 09:55:53;;;;;;;3.95;3.65;;;;;;;;;;5063160;28;20029;-81
2021/07/26 09:58:20;;;;;;;4.78;3.70;;;;;;;;;;5064851;28;20375;-81
2021/07/26 10:00:47;;;;;;;3.50;3.20;;;;;;;;;;5053943;28;20041;-79
2021/07/26 10:03:14;;;;;;;3.70;3.40;;;;;;;;;;5055441;28;20024;-81
2021/07/26 10:05:41;;;;;;;3.40;3.10;;;;;;;;;;5047152;28;20112;-79
2021/07/26 10:08:08;;;;;;;3.83;3.53;;;;;;;;;;5048887;28;20048;-80
2021/07/26 10:10:35;;;;;;;3.60;3.30;;;;;;;;;;5052519;28;20021;-81
2021/07/26 10:13:02;;;;;;;4.18;3.60;;;;;;;;;;5043375;28;20052;-80
2021/07/26 10:15:31;;;;;;;3.78;3.28;;;;;;;;;;5050617;28;20018;-79
2021/07/26 10:17:57;;;;;;;3.10;2.90;;;;;;;;;;5046871;28;20029;-80
2021/07/26 10:20:25;;;;;;;3.38;3.13;;;;;;;;;;5051046;28;20025;-81
2021/07/26 10:22:57;;;;;;;3.53;3.22;;;;;;;;;;5042057;28;20045;-81
2021/07/26 10:25:36;;;;;;;4.32;4.03;;;;;;;;;;5044698;28;20036;-81
2021/07/26 10:28:05;;;;;;;3.42;3.13;;;;;;;;;;5046480;28;20605;-80
2021/07/26 10:30:32;;;;;;;3.50;3.13;;;;;;;;;;5046697;28;20107;-81
2021/07/26 10:33:00;;;;;;;10.05;4.60;;;;;;;;;;5060186;28;20025;-81
2021/07/26 10:35:36;;;;;;;4.75;3.55;;;;;;;;;;5064285;28;20477;-80
2021/07/26 10:38:03;;;;;;;4.10;3.70;;;;;;;;;;5064921;28;20033;-82
2021/07/26 10:40:29;;;;;;;5.32;3.95;;;;;;;;;;5063832;28;20037;-82
2021/07/26 10:43:03;;;;;;;4.90;3.92;;;;;;;;;;5064983;28;20450;-79
2021/07/26 10:45:32;;;;;;;7.53;4.90;;;;;;;;;;5066039;28;20021;-80
2021/07/26 10:48:16;;;;;;;6.47;4.00;;;;;;;;;;5059346;28;20021;-80
2021/07/26 10:50:44;;;;;;;3.97;3.55;;;;;;;;;;5051975;28;20051;-81
2021/07/26 10:53:10;;;;;;;4.13;3.03;;;;;;;;;;5041692;28;20447;-80
2021/07/26 10:55:56;;;;;;;5.30;3.70;;;;;;;;;;5041549;28;20040;-81
2021/07/26 10:58:40;;;;;;;3.17;2.90;;;;;;;;;;5041674;28;20041;-81
2021/07/26 11:01:28;;;;;;;4.53;3.58;;;;;;;;;;5040760;28;20029;-81
2021/07/26 11:03:57;;;;;;;3.15;2.95;;;;;;;;;;5042238;28;20021;-81
2021/07/26 11:06:36;;;;;;;3.60;3.30;;;;;;;;;;5046545;28;20028;-80
2021/07/26 11:09:21;;;;;;;4.70;3.35;;;;;;;;;;5049905;28;20040;-80
2021/07/26 11:11:47;;;;;;;5.45;3.60;;;;;;;;;;5045940;28;20056;-80
2021/07/26 11:14:14;;;;;;;3.80;3.50;;;;;;;;;;5045678;28;20508;-79
2021/07/26 11:17:00;;;;;;;8.27;3.97;;;;;;;;;;5053619;28;20048;-81
2021/07/26 11:19:33;;;;;;;3.80;3.30;;;;;;;;;;5060498;28;20476;-80
2021/07/26 11:21:59;;;;;;;3.53;3.22;;;;;;;;;;5043833;28;20018;-81
2021/07/26 11:24:44;;;;;;;3.30;3.10;;;;;;;;;;5049434;28;20037;-80
2021/07/26 11:27:11;;;;;;;3.92;3.35;;;;;;;;;;5051979;28;20045;-79
2021/07/26 11:29:37;;;;;;;3.90;3.50;;;;;;;;;;5050997;28;20041;-78
2021/07/26 11:32:04;;;;;;;4.05;3.65;;;;;;;;;;5050456;28;20113;-80
2021/07/26 11:34:33;;;;;;;3.75;3.45;;;;;;;;;;5051414;28;20467;-78
2021/07/26 11:37:07;;;;;;;4.55;4.15;;;;;;;;;;5060195;28;20035;-80
2021/07/26 11:40:04;;;;;;;5.18;3.70;;;;;;;;;;5071489;28;20093;-79
2021/07/26 11:42:31;;;;;;;4.32;3.85;;;;;;;;;;5062768;28;20040;-80
2021/07/26 11:44:57;;;;;;;4.82;3.72;;;;;;;;;;5050050;28;20044;-79
2021/07/26 11:47:33;;;;;;;4.90;3.17;;;;;;;;;;5052676;28;20055;-78
2021/07/26 11:50:00;;;;;;;5.32;3.72;;;;;;;;;;5068317;28;20021;-79
2021/07/26 11:52:26;;;;;;;4.30;3.83;;;;;;;;;;5064199;28;20032;-80
2021/07/26 11:54:52;;;;;;;4.13;3.72;;;;;;;;;;5058822;28;20071;-80
2021/07/26 11:57:18;;;;;;;4.70;4.10;;;;;;;;;;5060448;28;20155;-79
2021/07/26 11:59:50;;;;;;;4.70;3.55;;;;;;;;;;5051006;28;20040;-77
2021/07/26 12:02:31;;;;;;;4.50;4.10;;;;;;;;;;5050116;28;20029;-77
2021/07/26 12:05:02;;;;;;;4.32;3.95;;;;;;;;;;5048937;28;20105;-78
2021/07/26 12:07:40;;;;;;;3.80;3.50;;;;;;;;;;5051371;28;20026;-78
2021/07/26 12:10:07;;;;;;;5.18;3.65;;;;;;;;;;5050283;28;20049;-77
2021/07/26 12:12:40;;;;;;;3.85;3.55;;;;;;;;;;5050250;28;20032;-79
2021/07/26 12:15:23;;;;;;;5.10;3.83;;;;;;;;;;5049636;28;20037;-78
2021/07/26 12:18:02;;;;;;;4.07;3.40;;;;;;;;;;5058322;28;20028;-78
2021/07/26 12:20:28;;;;;;;4.03;3.60;;;;;;;;;;5054671;28;20037;-82
2021/07/26 12:22:57;;;;;;;5.28;3.90;;;;;;;;;;5048356;28;20067;-80
2021/07/26 12:25:23;;;;;;;4.65;4.25;;;;;;;;;;5047823;28;20021;-80
2021/07/26 12:27:58;;;;;;;4.50;3.85;;;;;;;;;;5048390;28;20025;-79
2021/07/26 12:30:34;;;;;;;3.67;3.38;;;;;;;;;;5051397;28;20029;-76
2021/07/26 12:33:00;;;;;;;3.92;3.58;;;;;;;;;;5050321;28;20025;-79
2021/07/26 12:35:28;;;;;;;7.47;4.03;;;;;;;;;;5046453;28;20049;-80
2021/07/26 12:38:20;;;;;;;3.95;3.65;;;;;;;;;;5046122;28;20094;-81
2021/07/26 12:40:47;;;;;;;4.43;4.03;;;;;;;;;;5045943;28;20061;-80
2021/07/26 12:43:16;;;;;;;3.38;3.08;;;;;;;;;;5045846;28;20101;-78
2021/07/26 12:45:43;;;;;;;4.18;3.78;;;;;;;;;;5040025;28;20041;-80
2021/07/26 12:48:13;;;;;;;5.78;3.70;;;;;;;;;;5052508;28;20143;-80
2021/07/26 12:50:40;;;;;;;4.75;3.65;;;;;;;;;;5048808;28;20026;-78
2021/07/26 12:53:06;;;;;;;4.95;3.63;;;;;;;;;;5044592;28;20053;-80
2021/07/26 12:55:32;;;;;;;3.95;3.47;;;;;;;;;;5042025;28;20035;-80
2021/07/26 12:57:58;;;;;;;4.32;3.92;;;;;;;;;;5040836;28;20029;-78
2021/07/26 13:00:24;;;;;;;3.97;3.63;;;;;;;;;;5054093;28;20037;-80
2021/07/26 13:02:50;;;;;;;4.15;3.75;;;;;;;;;;5059452;28;20092;-79
2021/07/26 13:05:16;;;;;;;4.47;3.90;;;;;;;;;;5062647;28;20191;-78
2021/07/26 13:07:43;;;;;;;4.53;3.78;;;;;;;;;;5059676;28;20021;-81
2021/07/26 13:10:09;;;;;;;4.55;3.47;;;;;;;;;;5052881;28;20440;-79
2021/07/26 13:12:35;;;;;;;4.15;3.85;;;;;;;;;;5039012;28;20083;-80
2021/07/26 13:15:03;;;;;;;4.13;3.75;;;;;;;;;;5039952;28;20025;-81
2021/07/26 13:17:29;;;;;;;4.68;4.10;;;;;;;;;;5046257;28;20153;-80
2021/07/26 13:19:55;;;;;;;3.75;3.42;;;;;;;;;;5054308;28;20032;-81
2021/07/26 13:22:22;;;;;;;5.18;3.90;;;;;;;;;;5054197;28;20032;-80
2021/07/26 13:24:48;;;;;;;4.00;3.70;;;;;;;;;;5046509;28;20030;-81
2021/07/26 13:27:14;;;;;;;4.05;3.67;;;;;;;;;;5040742;28;20028;-80
2021/07/26 13:29:40;;;;;;;4.32;3.92;;;;;;;;;;5039596;28;20037;-81
2021/07/26 13:32:06;;;;;;;3.88;3.58;;;;;;;;;;5060079;28;20091;-81
2021/07/26 13:34:32;;;;;;;4.60;4.20;;;;;;;;;;5063456;28;20056;-81
2021/07/26 13:36:58;;;;;;;3.75;3.42;;;;;;;;;;5060743;28;20025;-81
2021/07/26 13:39:25;;;;;;;4.05;3.65;;;;;;;;;;5061369;28;20029;-79
2021/07/26 13:41:54;;;;;;;4.22;3.83;;;;;;;;;;5060108;28;20143;-79
2021/07/26 13:44:21;;;;;;;3.83;3.47;;;;;;;;;;5060944;28;20021;-81
2021/07/26 13:46:47;;;;;;;4.43;3.67;;;;;;;;;;5058663;28;20401;-81
2021/07/26 13:49:13;;;;;;;4.97;4.20;;;;;;;;;;5052119;28;20095;-79
2021/07/26 13:51:39;;;;;;;4.10;3.60;;;;;;;;;;5050883;28;20026;-80
2021/07/26 13:54:05;;;;;;;3.65;3.30;;;;;;;;;;5040896;28;20055;-80
2021/07/26 13:56:31;;;;;;;3.63;3.03;;;;;;;;;;5040528;28;20030;-79
2021/07/26 13:58:57;;;;;;;4.25;3.60;;;;;;;;;;5038357;28;20030;-80
2021/07/26 14:01:23;;;;;;;3.90;3.53;;;;;;;;;;5039844;28;20031;-79
2021/07/26 14:03:49;;;;;;;6.32;3.90;;;;;;;;;;5039818;28;20076;-80
2021/07/26 14:06:15;;;;;;;3.85;3.55;;;;;;;;;;5039912;28;20196;-79
2021/07/26 14:08:42;;;;;;;4.05;3.65;;;;;;;;;;5045599;28;20021;-79
2021/07/26 14:11:08;;;;;;;3.90;3.50;;;;;;;;;;5045600;28;20032;-78
2021/07/26 14:13:34;;;;;;;3.95;3.58;;;;;;;;;;5043242;28;20086;-79
2021/07/26 14:16:00;;;;;;;5.15;3.30;;;;;;;;;;5042022;28;20017;-78
2021/07/26 14:18:26;;;;;;;3.80;3.50;;;;;;;;;;5050384;28;20037;-80
2021/07/26 14:20:53;;;;;;;6.05;3.75;;;;;;;;;;5057103;28;20013;-78
2021/07/26 14:23:20;;;;;;;3.75;3.45;;;;;;;;;;5071315;28;20093;-80
2021/07/26 14:25:46;;;;;;;5.45;4.05;;;;;;;;;;5067868;28;20025;-80
2021/07/26 14:28:12;;;;;;;3.78;3.40;;;;;;;;;;5060225;28;20513;-80
2021/07/26 14:30:38;;;;;;;4.50;3.38;;;;;;;;;;5053199;28;20109;-78
2021/07/26 14:33:05;;;;;;;3.92;3.30;;;;;;;;;;5050960;28;20028;-78
2021/07/26 14:35:32;;;;;;;4.15;3.75;;;;;;;;;;5052646;28;20025;-79
2021/07/26 14:37:58;;;;;;;4.80;3.88;;;;;;;;;;5052838;28;20092;-78
2021/07/26 14:40:24;;;;;;;3.83;3.50;;;;;;;;;;5051814;28;20037;-78
2021/07/26 14:42:50;;;;;;;4.45;3.20;;;;;;;;;;5049853;28;20036;-78
2021/07/26 14:45:19;;;;;;;3.83;3.42;;;;;;;;;;5036989;28;20017;-80
2021/07/26 14:47:45;;;;;;;4.95;3.60;;;;;;;;;;5041148;28;20544;-78
2021/07/26 14:50:13;;;;;;;3.90;3.47;;;;;;;;;;5050840;28;20382;-77
2021/07/26 14:52:39;;;;;;;3.88;3.50;;;;;;;;;;5034956;28;20084;-78